sensor_id;sensor_type;location;lat;lon;timestamp;P1;durP1;ratioP1;P2;durP2;ratioP2
40623;SDS011;26325;48.594;11.650;2022-08-20T00:01:07;5.35;;;5.00;;
40623;SDS011;26325;48.594;11.650;2022-08-20T00:03:36;5.53;;;5.07;;
40623;SDS011;26325;48.594;11.650;2022-08-20T00:06:11;5.30;;;5.00;;
40623;SDS011;26325;48.594;11.650;2022-08-20T00:08:39;6.35;;;5.95;;
40623;SDS011;26325;48.594;11.650;2022-08-20T00:11:07;6.18;;;5.78;;
40623;SDS011;26325;48.594;11.650;2022-08-20T00:13:38;5.55;;;5.15;;
40623;SDS011;26325;48.594;11.650;2022-08-20T00:16:10;5.32;;;4.93;;
40623;SDS011;26325;48.594;11.650;2022-08-20T00:18:36;5.00;;;4.70;;
40623;SDS011;26325;48.594;11.650;2022-08-20T00:21:08;6.10;;;5.70;;
40623;SDS011;26325;48.594;11.650;2022-08-20T00:23:39;5.28;;;4.88;;
40623;SDS011;26325;48.594;11.650;2022-08-20T00:26:07;5.80;;;5.40;;
40623;SDS011;26325;48.594;11.650;2022-08-20T00:28:34;5.15;;;4.85;;
40623;SDS011;26325;48.594;11.650;2022-08-20T00:33:28;5.00;;;4.70;;
40623;SDS011;26325;48.594;11.650;2022-08-20T00:35:55;6.63;;;5.18;;
40623;SDS011;26325;48.594;11.650;2022-08-20T00:38:22;5.00;;;4.70;;
40623;SDS011;26325;48.594;11.650;2022-08-20T00:40:55;5.93;;;5.53;;
40623;SDS011;26325;48.594;11.650;2022-08-20T00:43:33;6.40;;;5.90;;
40623;SDS011;26325;48.594;11.650;2022-08-20T00:46:03;5.43;;;4.93;;
40623;SDS011;26325;48.594;11.650;2022-08-20T00:48:33;5.25;;;4.95;;
40623;SDS011;26325;48.594;11.650;2022-08-20T00:51:08;5.32;;;4.95;;
40623;SDS011;26325;48.594;11.650;2022-08-20T00:53:36;6.20;;;5.70;;
40623;SDS011;26325;48.594;11.650;2022-08-20T00:56:05;5.15;;;4.85;;
40623;SDS011;26325;48.594;11.650;2022-08-20T00:58:34;5.32;;;5.03;;
40623;SDS011;26325;48.594;11.650;2022-08-20T01:01:02;5.72;;;5.32;;
40623;SDS011;26325;48.594;11.650;2022-08-20T01:03:29;5.40;;;5.00;;
40623;SDS011;26325;48.594;11.650;2022-08-20T01:08:21;5.43;;;5.05;;
40623;SDS011;26325;48.594;11.650;2022-08-20T01:10:49;4.93;;;4.63;;
40623;SDS011;26325;48.594;11.650;2022-08-20T01:13:20;5.25;;;4.85;;
40623;SDS011;26325;48.594;11.650;2022-08-20T01:15:49;4.95;;;4.65;;
40623;SDS011;26325;48.594;11.650;2022-08-20T01:18:21;5.70;;;5.30;;
40623;SDS011;26325;48.594;11.650;2022-08-20T01:20:54;5.63;;;5.22;;
40623;SDS011;26325;48.594;11.650;2022-08-20T01:26:13;6.38;;;5.93;;
40623;SDS011;26325;48.594;11.650;2022-08-20T01:31:26;5.82;;;5.43;;
40623;SDS011;26325;48.594;11.650;2022-08-20T01:33:57;5.70;;;5.40;;
40623;SDS011;26325;48.594;11.650;2022-08-20T01:36:34;6.32;;;5.90;;
40623;SDS011;26325;48.594;11.650;2022-08-20T01:39:06;5.50;;;5.10;;
40623;SDS011;26325;48.594;11.650;2022-08-20T01:44:21;6.15;;;5.75;;
40623;SDS011;26325;48.594;11.650;2022-08-20T01:46:51;7.72;;;7.03;;
40623;SDS011;26325;48.594;11.650;2022-08-20T01:49:29;6.80;;;6.20;;
40623;SDS011;26325;48.594;11.650;2022-08-20T01:51:58;7.15;;;6.65;;
40623;SDS011;26325;48.594;11.650;2022-08-20T01:54:28;6.65;;;6.15;;
40623;SDS011;26325;48.594;11.650;2022-08-20T01:59:31;6.75;;;6.25;;
40623;SDS011;26325;48.594;11.650;2022-08-20T02:04:23;8.27;;;7.57;;
40623;SDS011;26325;48.594;11.650;2022-08-20T02:06:53;6.75;;;6.25;;
40623;SDS011;26325;48.594;11.650;2022-08-20T02:09:21;7.00;;;6.50;;
40623;SDS011;26325;48.594;11.650;2022-08-20T02:11:48;5.95;;;5.55;;
40623;SDS011;26325;48.594;11.650;2022-08-20T02:14:14;5.75;;;5.38;;
40623;SDS011;26325;48.594;11.650;2022-08-20T02:16:42;6.90;;;6.40;;
40623;SDS011;26325;48.594;11.650;2022-08-20T02:19:24;5.65;;;5.28;;
40623;SDS011;26325;48.594;11.650;2022-08-20T02:21:54;6.25;;;5.75;;
40623;SDS011;26325;48.594;11.650;2022-08-20T02:24:23;5.70;;;5.30;;
40623;SDS011;26325;48.594;11.650;2022-08-20T02:29:15;5.88;;;5.47;;
40623;SDS011;26325;48.594;11.650;2022-08-20T02:31:45;5.95;;;5.55;;
40623;SDS011;26325;48.594;11.650;2022-08-20T02:34:14;7.88;;;7.10;;
40623;SDS011;26325;48.594;11.650;2022-08-20T02:36:41;9.32;;;6.65;;
40623;SDS011;26325;48.594;11.650;2022-08-20T02:39:09;6.95;;;6.45;;
40623;SDS011;26325;48.594;11.650;2022-08-20T02:41:37;6.78;;;6.28;;
40623;SDS011;26325;48.594;11.650;2022-08-20T02:44:05;6.20;;;5.70;;
40623;SDS011;26325;48.594;11.650;2022-08-20T02:46:31;6.15;;;5.75;;
40623;SDS011;26325;48.594;11.650;2022-08-20T02:48:58;6.18;;;5.72;;
40623;SDS011;26325;48.594;11.650;2022-08-20T02:51:24;6.60;;;6.10;;
40623;SDS011;26325;48.594;11.650;2022-08-20T02:53:50;6.13;;;5.72;;
40623;SDS011;26325;48.594;11.650;2022-08-20T02:58:44;7.35;;;6.65;;
40623;SDS011;26325;48.594;11.650;2022-08-20T03:01:13;7.20;;;6.60;;
40623;SDS011;26325;48.594;11.650;2022-08-20T03:03:41;8.85;;;8.05;;
40623;SDS011;26325;48.594;11.650;2022-08-20T03:06:08;7.65;;;7.15;;
40623;SDS011;26325;48.594;11.650;2022-08-20T03:08:35;9.27;;;8.48;;
40623;SDS011;26325;48.594;11.650;2022-08-20T03:11:02;7.88;;;7.28;;
40623;SDS011;26325;48.594;11.650;2022-08-20T03:13:28;7.90;;;7.32;;
40623;SDS011;26325;48.594;11.650;2022-08-20T03:18:24;7.22;;;6.72;;
40623;SDS011;26325;48.594;11.650;2022-08-20T03:20:52;7.85;;;7.25;;
40623;SDS011;26325;48.594;11.650;2022-08-20T03:25:45;7.20;;;6.60;;
40623;SDS011;26325;48.594;11.650;2022-08-20T03:28:12;7.10;;;6.60;;
40623;SDS011;26325;48.594;11.650;2022-08-20T03:30:41;7.28;;;6.78;;
40623;SDS011;26325;48.594;11.650;2022-08-20T03:33:08;7.07;;;6.57;;
40623;SDS011;26325;48.594;11.650;2022-08-20T03:38:00;7.82;;;7.22;;
40623;SDS011;26325;48.594;11.650;2022-08-20T03:40:31;7.72;;;7.13;;
40623;SDS011;26325;48.594;11.650;2022-08-20T03:42:58;8.23;;;7.63;;
40623;SDS011;26325;48.594;11.650;2022-08-20T03:45:25;10.68;;;9.68;;
40623;SDS011;26325;48.594;11.650;2022-08-20T03:47:52;8.30;;;7.68;;
40623;SDS011;26325;48.594;11.650;2022-08-20T03:50:25;7.82;;;7.22;;
40623;SDS011;26325;48.594;11.650;2022-08-20T03:52:56;7.10;;;6.60;;
40623;SDS011;26325;48.594;11.650;2022-08-20T03:55:23;8.00;;;7.40;;
40623;SDS011;26325;48.594;11.650;2022-08-20T03:57:54;8.30;;;7.70;;
40623;SDS011;26325;48.594;11.650;2022-08-20T04:00:26;8.52;;;7.82;;
40623;SDS011;26325;48.594;11.650;2022-08-20T04:02:54;8.07;;;7.47;;
40623;SDS011;26325;48.594;11.650;2022-08-20T04:05:22;7.70;;;7.20;;
40623;SDS011;26325;48.594;11.650;2022-08-20T04:07:49;7.20;;;6.70;;
40623;SDS011;26325;48.594;11.650;2022-08-20T04:10:15;6.97;;;6.47;;
40623;SDS011;26325;48.594;11.650;2022-08-20T04:15:12;8.40;;;7.80;;
40623;SDS011;26325;48.594;11.650;2022-08-20T04:17:58;8.15;;;7.55;;
40623;SDS011;26325;48.594;11.650;2022-08-20T04:22:53;8.88;;;8.07;;
40623;SDS011;26325;48.594;11.650;2022-08-20T04:25:21;11.15;;;10.32;;
40623;SDS011;26325;48.594;11.650;2022-08-20T04:27:48;9.77;;;9.07;;
40623;SDS011;26325;48.594;11.650;2022-08-20T04:30:15;9.50;;;8.80;;
40623;SDS011;26325;48.594;11.650;2022-08-20T04:32:45;10.40;;;9.60;;
40623;SDS011;26325;48.594;11.650;2022-08-20T04:35:12;10.13;;;9.32;;
40623;SDS011;26325;48.594;11.650;2022-08-20T04:37:44;13.32;;;12.27;;
40623;SDS011;26325;48.594;11.650;2022-08-20T04:40:16;13.77;;;12.75;;
40623;SDS011;26325;48.594;11.650;2022-08-20T04:43:02;15.45;;;14.25;;
40623;SDS011;26325;48.594;11.650;2022-08-20T04:45:32;14.93;;;13.73;;
40623;SDS011;26325;48.594;11.650;2022-08-20T04:48:01;17.60;;;16.20;;
40623;SDS011;26325;48.594;11.650;2022-08-20T04:50:28;16.17;;;14.85;;
40623;SDS011;26325;48.594;11.650;2022-08-20T04:52:58;16.10;;;14.80;;
40623;SDS011;26325;48.594;11.650;2022-08-20T04:57:49;18.10;;;16.55;;
40623;SDS011;26325;48.594;11.650;2022-08-20T05:00:15;20.38;;;18.55;;
40623;SDS011;26325;48.594;11.650;2022-08-20T05:02:42;21.98;;;20.17;;
40623;SDS011;26325;48.594;11.650;2022-08-20T05:05:08;19.88;;;18.27;;
40623;SDS011;26325;48.594;11.650;2022-08-20T05:07:38;23.02;;;21.10;;
40623;SDS011;26325;48.594;11.650;2022-08-20T05:10:12;21.92;;;20.13;;
40623;SDS011;26325;48.594;11.650;2022-08-20T05:12:40;22.05;;;20.25;;
40623;SDS011;26325;48.594;11.650;2022-08-20T05:15:07;22.27;;;20.48;;
40623;SDS011;26325;48.594;11.650;2022-08-20T05:17:36;21.48;;;19.58;;
40623;SDS011;26325;48.594;11.650;2022-08-20T05:20:07;21.45;;;19.75;;
40623;SDS011;26325;48.594;11.650;2022-08-20T05:22:34;20.63;;;19.00;;
40623;SDS011;26325;48.594;11.650;2022-08-20T05:27:28;19.52;;;17.88;;
40623;SDS011;26325;48.594;11.650;2022-08-20T05:29:59;21.45;;;19.55;;
40623;SDS011;26325;48.594;11.650;2022-08-20T05:32:26;21.95;;;20.15;;
40623;SDS011;26325;48.594;11.650;2022-08-20T05:34:52;20.85;;;19.17;;
40623;SDS011;26325;48.594;11.650;2022-08-20T05:37:19;20.35;;;18.55;;
40623;SDS011;26325;48.594;11.650;2022-08-20T05:39:45;20.23;;;18.52;;
40623;SDS011;26325;48.594;11.650;2022-08-20T05:42:14;21.55;;;19.70;;
40623;SDS011;26325;48.594;11.650;2022-08-20T05:47:05;19.65;;;18.05;;
40623;SDS011;26325;48.594;11.650;2022-08-20T05:51:59;20.20;;;18.60;;
40623;SDS011;26325;48.594;11.650;2022-08-20T05:54:27;17.92;;;16.52;;
40623;SDS011;26325;48.594;11.650;2022-08-20T05:59:24;21.73;;;20.02;;
40623;SDS011;26325;48.594;11.650;2022-08-20T06:01:50;17.48;;;16.08;;
40623;SDS011;26325;48.594;11.650;2022-08-20T06:04:19;19.98;;;18.27;;
40623;SDS011;26325;48.594;11.650;2022-08-20T06:07:02;18.58;;;17.08;;
40623;SDS011;26325;48.594;11.650;2022-08-20T06:09:30;19.13;;;17.52;;
40623;SDS011;26325;48.594;11.650;2022-08-20T06:11:56;19.13;;;17.63;;
40623;SDS011;26325;48.594;11.650;2022-08-20T06:14:23;18.60;;;17.00;;
40623;SDS011;26325;48.594;11.650;2022-08-20T06:16:51;18.50;;;17.10;;
40623;SDS011;26325;48.594;11.650;2022-08-20T06:21:42;19.77;;;18.13;;
40623;SDS011;26325;48.594;11.650;2022-08-20T06:24:08;17.65;;;16.15;;
40623;SDS011;26325;48.594;11.650;2022-08-20T06:29:04;16.83;;;15.43;;
40623;SDS011;26325;48.594;11.650;2022-08-20T06:31:31;17.50;;;16.10;;
40623;SDS011;26325;48.594;11.650;2022-08-20T06:33:58;18.45;;;16.95;;
40623;SDS011;26325;48.594;11.650;2022-08-20T06:38:50;19.13;;;17.60;;
40623;SDS011;26325;48.594;11.650;2022-08-20T06:43:41;15.88;;;14.57;;
40623;SDS011;26325;48.594;11.650;2022-08-20T06:46:07;16.10;;;14.85;;
40623;SDS011;26325;48.594;11.650;2022-08-20T06:51:00;15.23;;;13.93;;
40623;SDS011;26325;48.594;11.650;2022-08-20T06:53:25;17.40;;;16.00;;
40623;SDS011;26325;48.594;11.650;2022-08-20T06:58:24;17.50;;;16.10;;
40623;SDS011;26325;48.594;11.650;2022-08-20T07:00:53;17.90;;;16.50;;
40623;SDS011;26325;48.594;11.650;2022-08-20T07:03:18;17.20;;;15.57;;
40623;SDS011;26325;48.594;11.650;2022-08-20T07:08:18;16.45;;;15.05;;
40623;SDS011;26325;48.594;11.650;2022-08-20T07:10:46;17.77;;;16.30;;
40623;SDS011;26325;48.594;11.650;2022-08-20T07:13:16;15.88;;;14.57;;
40623;SDS011;26325;48.594;11.650;2022-08-20T07:18:09;14.07;;;12.88;;
40623;SDS011;26325;48.594;11.650;2022-08-20T07:20:36;14.90;;;13.70;;
40623;SDS011;26325;48.594;11.650;2022-08-20T07:23:04;17.67;;;16.15;;
40623;SDS011;26325;48.594;11.650;2022-08-20T07:25:32;16.15;;;14.75;;
40623;SDS011;26325;48.594;11.650;2022-08-20T07:28:00;14.77;;;13.55;;
40623;SDS011;26325;48.594;11.650;2022-08-20T07:30:30;16.00;;;14.65;;
40623;SDS011;26325;48.594;11.650;2022-08-20T07:33:16;16.75;;;15.27;;
40623;SDS011;26325;48.594;11.650;2022-08-20T07:35:45;15.65;;;14.45;;
40623;SDS011;26325;48.594;11.650;2022-08-20T07:38:21;14.40;;;13.20;;
40623;SDS011;26325;48.594;11.650;2022-08-20T07:40:52;16.02;;;14.73;;
40623;SDS011;26325;48.594;11.650;2022-08-20T07:43:20;14.55;;;13.45;;
40623;SDS011;26325;48.594;11.650;2022-08-20T07:45:53;13.43;;;12.27;;
40623;SDS011;26325;48.594;11.650;2022-08-20T07:48:23;13.65;;;12.55;;
40623;SDS011;26325;48.594;11.650;2022-08-20T07:50:51;15.18;;;13.85;;
40623;SDS011;26325;48.594;11.650;2022-08-20T07:53:20;16.05;;;14.52;;
40623;SDS011;26325;48.594;11.650;2022-08-20T07:58:23;15.30;;;14.05;;
40623;SDS011;26325;48.594;11.650;2022-08-20T08:00:49;16.50;;;15.00;;
40623;SDS011;26325;48.594;11.650;2022-08-20T08:03:18;15.75;;;14.45;;
40623;SDS011;26325;48.594;11.650;2022-08-20T08:05:45;15.35;;;13.95;;
40623;SDS011;26325;48.594;11.650;2022-08-20T08:08:23;14.80;;;13.52;;
40623;SDS011;26325;48.594;11.650;2022-08-20T08:10:57;17.30;;;15.52;;
40623;SDS011;26325;48.594;11.650;2022-08-20T08:13:27;14.88;;;13.63;;
40623;SDS011;26325;48.594;11.650;2022-08-20T08:15:58;15.55;;;14.15;;
40623;SDS011;26325;48.594;11.650;2022-08-20T08:18:29;13.85;;;12.75;;
40623;SDS011;26325;48.594;11.650;2022-08-20T08:21:01;16.63;;;15.15;;
40623;SDS011;26325;48.594;11.650;2022-08-20T08:25:53;14.85;;;13.55;;
40623;SDS011;26325;48.594;11.650;2022-08-20T08:28:19;14.10;;;12.80;;
40623;SDS011;26325;48.594;11.650;2022-08-20T08:30:46;12.43;;;11.43;;
40623;SDS011;26325;48.594;11.650;2022-08-20T08:33:25;11.00;;;10.10;;
40623;SDS011;26325;48.594;11.650;2022-08-20T08:36:04;10.35;;;9.55;;
40623;SDS011;26325;48.594;11.650;2022-08-20T08:38:34;10.15;;;9.45;;
40623;SDS011;26325;48.594;11.650;2022-08-20T08:44:06;11.55;;;10.65;;
40623;SDS011;26325;48.594;11.650;2022-08-20T08:46:37;11.30;;;10.40;;
40623;SDS011;26325;48.594;11.650;2022-08-20T08:49:06;11.48;;;10.48;;
40623;SDS011;26325;48.594;11.650;2022-08-20T08:51:39;12.68;;;11.57;;
40623;SDS011;26325;48.594;11.650;2022-08-20T08:54:07;13.00;;;11.88;;
40623;SDS011;26325;48.594;11.650;2022-08-20T08:56:38;11.57;;;10.55;;
40623;SDS011;26325;48.594;11.650;2022-08-20T08:59:05;10.77;;;9.98;;
40623;SDS011;26325;48.594;11.650;2022-08-20T09:01:38;11.40;;;10.50;;
40623;SDS011;26325;48.594;11.650;2022-08-20T09:04:21;10.75;;;9.90;;
40623;SDS011;26325;48.594;11.650;2022-08-20T09:06:49;11.57;;;10.60;;
40623;SDS011;26325;48.594;11.650;2022-08-20T09:09:42;12.38;;;11.27;;
40623;SDS011;26325;48.594;11.650;2022-08-20T09:12:11;12.35;;;11.32;;
40623;SDS011;26325;48.594;11.650;2022-08-20T09:14:42;12.75;;;11.65;;
40623;SDS011;26325;48.594;11.650;2022-08-20T09:17:07;11.60;;;10.60;;
40623;SDS011;26325;48.594;11.650;2022-08-20T09:22:11;11.07;;;10.25;;
40623;SDS011;26325;48.594;11.650;2022-08-20T09:24:41;11.05;;;10.15;;
40623;SDS011;26325;48.594;11.650;2022-08-20T09:27:07;11.48;;;10.57;;
40623;SDS011;26325;48.594;11.650;2022-08-20T09:29:37;11.07;;;10.18;;
40623;SDS011;26325;48.594;11.650;2022-08-20T09:32:06;11.82;;;10.82;;
40623;SDS011;26325;48.594;11.650;2022-08-20T09:34:42;11.23;;;10.32;;
40623;SDS011;26325;48.594;11.650;2022-08-20T09:37:12;11.20;;;10.32;;
40623;SDS011;26325;48.594;11.650;2022-08-20T09:39:41;10.77;;;9.98;;
40623;SDS011;26325;48.594;11.650;2022-08-20T09:44:36;9.35;;;8.55;;
